createdAt,value
2023-02-13T00:00:00.384Z,0
2023-02-13T00:01:01.065Z,0
2023-02-13T00:02:00.201Z,0
2023-02-13T00:03:00.325Z,0
2023-02-13T00:04:00.717Z,0
2023-02-13T00:04:59.770Z,0
2023-02-13T00:06:00.658Z,0
2023-02-13T00:07:00.238Z,0
2023-02-13T00:08:00.215Z,0
2023-02-13T00:09:00.500Z,0
2023-02-13T00:10:00.420Z,0
2023-02-13T00:11:00.881Z,0
2023-02-13T00:12:00.351Z,0
2023-02-13T00:13:00.409Z,0
2023-02-13T00:13:59.950Z,0
2023-02-13T00:15:00.442Z,0
2023-02-13T00:16:00.655Z,0
2023-02-13T00:17:00.100Z,0
2023-02-13T00:18:00.054Z,0
2023-02-13T00:19:00.041Z,0
2023-02-13T00:20:00.291Z,0
2023-02-13T00:21:00.543Z,0
2023-02-13T00:22:00.407Z,0
2023-02-13T00:22:59.956Z,0
2023-02-13T00:23:59.941Z,0
2023-02-13T00:24:59.679Z,0
2023-02-13T00:25:59.890Z,0
2023-02-13T00:27:00.159Z,0
2023-02-13T00:27:59.951Z,0
2023-02-13T00:28:59.600Z,0
2023-02-13T00:29:59.848Z,0
2023-02-13T00:31:01.417Z,0
2023-02-13T00:32:00.823Z,0
2023-02-13T00:32:59.274Z,0
2023-02-13T00:33:59.781Z,0
2023-02-13T00:34:59.278Z,0
2023-02-13T00:35:59.725Z,0
2023-02-13T00:36:59.691Z,0
2023-02-13T00:38:00.111Z,0
2023-02-13T00:38:59.431Z,0
2023-02-13T00:39:59.623Z,0
2023-02-13T00:41:00.205Z,0
2023-02-13T00:41:59.995Z,0
2023-02-13T00:42:59.578Z,0
2023-02-13T00:43:59.394Z,0
2023-02-13T00:44:59.792Z,0
2023-02-13T00:45:59.740Z,0
2023-02-13T00:46:59.553Z,0
2023-02-13T00:47:59.482Z,0
2023-02-13T00:48:59.223Z,0
2023-02-13T00:49:59.475Z,0
2023-02-13T00:51:00.406Z,0
2023-02-13T00:51:59.182Z,0
2023-02-13T00:52:59.649Z,0
2023-02-13T00:53:59.773Z,0
2023-02-13T00:54:59.365Z,0
2023-02-13T00:55:59.139Z,0
2023-02-13T00:56:59.596Z,0
2023-02-13T00:57:59.037Z,0
2023-02-13T00:58:59.311Z,0
2023-02-13T01:00:00.269Z,0
2023-02-13T01:01:00.039Z,0
2023-02-13T01:01:59.671Z,0
2023-02-13T01:02:59.494Z,0
2023-02-13T01:03:59.246Z,0
2023-02-13T01:04:59.505Z,0
2023-02-13T01:05:59.183Z,0
2023-02-13T01:06:58.913Z,0
2023-02-13T01:07:59.547Z,0
2023-02-13T01:08:59.137Z,0
2023-02-13T01:09:59.491Z,0
2023-02-13T01:11:00.156Z,0
2023-02-13T01:11:58.807Z,0
2023-02-13T01:12:59.051Z,0
2023-02-13T01:13:59.040Z,0
2023-02-13T01:14:59.160Z,0
2023-02-13T01:15:59.591Z,0
2023-02-13T01:16:58.704Z,0
2023-02-13T01:17:58.684Z,0
2023-02-13T01:18:58.940Z,0
2023-02-13T01:19:59.216Z,0
2023-02-13T01:20:59.937Z,0
2023-02-13T01:21:59.124Z,0
2023-02-13T01:22:58.854Z,0
2023-02-13T01:23:59.094Z,0
2023-02-13T01:24:58.582Z,0
2023-02-13T01:25:59.212Z,0
2023-02-13T01:26:58.791Z,0
2023-02-13T01:27:58.800Z,0
2023-02-13T01:28:58.760Z,0
2023-02-13T01:29:58.489Z,0
2023-02-13T01:31:00.250Z,0
2023-02-13T01:31:59.197Z,0
2023-02-13T01:32:58.955Z,0
2023-02-13T01:34:30.756Z,0
2023-02-13T01:34:58.405Z,0
2023-02-13T01:35:58.669Z,0
2023-02-13T01:36:58.367Z,0
2023-02-13T01:37:58.629Z,0
2023-02-13T01:38:58.594Z,0
2023-02-13T01:39:58.288Z,0
2023-02-13T01:40:59.706Z,0
2023-02-13T01:41:58.989Z,0
2023-02-13T01:42:58.833Z,0
2023-02-13T01:43:58.540Z,0
2023-02-13T01:44:58.474Z,0
2023-02-13T01:45:58.688Z,0
2023-02-13T01:46:58.435Z,0
2023-02-13T01:47:58.413Z,0
2023-02-13T01:48:58.398Z,0
2023-02-13T01:49:58.614Z,0
2023-02-13T01:50:59.221Z,0
2023-02-13T01:51:58.121Z,0
2023-02-13T01:52:58.574Z,0
2023-02-13T01:53:58.302Z,0
2023-02-13T01:54:58.419Z,0
2023-02-13T01:55:58.271Z,0
2023-02-13T01:56:58.499Z,0
2023-02-13T01:57:58.622Z,0
2023-02-13T01:58:57.983Z,0
2023-02-13T01:59:58.550Z,0
2023-02-13T02:00:58.707Z,0
2023-02-13T02:01:59.146Z,0
2023-02-13T02:02:58.700Z,0
2023-02-13T02:03:58.436Z,0
2023-02-13T02:04:58.222Z,0
2023-02-13T02:05:58.386Z,0
2023-02-13T02:06:58.375Z,0
2023-02-13T02:07:58.140Z,0
2023-02-13T02:08:58.597Z,0
2023-02-13T02:09:58.363Z,0
2023-02-13T02:10:58.724Z,0
2023-02-13T02:11:58.295Z,0
2023-02-13T02:12:58.529Z,0
2023-02-13T02:13:58.656Z,0
2023-02-13T02:14:58.030Z,0
2023-02-13T02:15:58.798Z,0
2023-02-13T02:16:57.998Z,0
2023-02-13T02:17:58.439Z,0
2023-02-13T02:18:58.443Z,0
2023-02-13T02:19:57.941Z,0
2023-02-13T02:20:58.820Z,0
2023-02-13T02:21:58.058Z,0
2023-02-13T02:22:57.860Z,0
2023-02-13T02:23:58.085Z,0
2023-02-13T02:24:58.353Z,0
2023-02-13T02:25:58.401Z,0
2023-02-13T02:26:58.306Z,0
2023-02-13T02:27:58.274Z,0
2023-02-13T02:28:57.991Z,0
2023-02-13T02:29:58.374Z,0
2023-02-13T02:30:59.219Z,0
2023-02-13T02:31:58.072Z,0
2023-02-13T02:32:57.667Z,0
2023-02-13T02:33:57.925Z,0
2023-02-13T02:34:57.641Z,0
2023-02-13T02:35:57.886Z,0
2023-02-13T02:36:57.845Z,0
2023-02-13T02:37:57.829Z,0
2023-02-13T02:38:57.549Z,0
2023-02-13T02:39:58.060Z,0
2023-02-13T02:40:58.674Z,0
2023-02-13T02:41:57.744Z,0
2023-02-13T02:42:57.220Z,0
2023-02-13T02:43:57.477Z,0
2023-02-13T02:44:57.713Z,0
2023-02-13T02:45:58.082Z,0
2023-02-13T02:46:57.679Z,0
2023-02-13T02:47:57.406Z,0
2023-02-13T02:48:57.930Z,0
2023-02-13T02:49:57.607Z,0
2023-02-13T02:50:58.601Z,0
2023-02-13T02:51:57.556Z,0
2023-02-13T02:52:57.836Z,0
2023-02-13T02:53:57.210Z,0
2023-02-13T02:54:57.781Z,0
2023-02-13T02:55:57.747Z,0
2023-02-13T02:56:57.744Z,0
2023-02-13T02:57:57.494Z,0
2023-02-13T02:58:57.734Z,0
2023-02-13T02:59:57.669Z,0
2023-02-13T03:00:58.503Z,0
2023-02-13T03:01:57.787Z,0
2023-02-13T03:02:57.650Z,0
2023-02-13T03:03:57.563Z,0
2023-02-13T03:04:57.595Z,0
2023-02-13T03:05:57.096Z,0
2023-02-13T03:06:57.284Z,0
2023-02-13T03:07:57.039Z,0
2023-02-13T03:08:57.508Z,0
2023-02-13T03:09:56.997Z,0
2023-02-13T03:10:58.589Z,0
2023-02-13T03:11:57.493Z,0
2023-02-13T03:12:56.940Z,0
2023-02-13T03:13:56.942Z,0
2023-02-13T03:14:56.941Z,0
2023-02-13T03:15:57.150Z,0
2023-02-13T03:16:56.887Z,0
2023-02-13T03:17:57.504Z,0
2023-02-13T03:18:56.608Z,0
2023-02-13T03:19:56.807Z,0
2023-02-13T03:20:58.018Z,0
2023-02-13T03:21:57.024Z,0
2023-02-13T03:22:56.991Z,0
2023-02-13T03:23:56.998Z,0
2023-02-13T03:24:57.225Z,0
2023-02-13T03:25:57.208Z,0
2023-02-13T03:26:56.950Z,0
2023-02-13T03:27:56.646Z,0
2023-02-13T03:28:56.645Z,0
2023-02-13T03:29:56.620Z,0
2023-02-13T03:30:57.271Z,0
2023-02-13T03:31:57.216Z,0
2023-02-13T03:32:56.832Z,0
2023-02-13T03:50:07.167Z,0
2023-02-13T03:51:07.375Z,0
2023-02-13T03:52:06.712Z,0
2023-02-13T03:53:06.945Z,0
2023-02-13T03:54:06.433Z,0
2023-02-13T03:55:06.657Z,0
2023-02-13T03:56:06.929Z,0
2023-02-13T03:57:06.609Z,0
2023-02-13T03:58:06.374Z,0
2023-02-13T03:59:06.831Z,0
2023-02-13T04:00:07.066Z,0
2023-02-13T04:01:08.036Z,0
2023-02-13T04:02:07.110Z,0
2023-02-13T04:03:07.514Z,0
2023-02-13T04:04:07.478Z,0
2023-02-13T04:05:06.833Z,0
2023-02-13T04:06:07.572Z,0
2023-02-13T04:07:06.681Z,0
2023-02-13T04:08:06.896Z,0
2023-02-13T04:09:06.853Z,0
2023-02-13T04:10:06.611Z,0
2023-02-13T04:11:07.545Z,0
2023-02-13T04:12:06.576Z,0
2023-02-13T04:13:07.298Z,0
2023-02-13T04:14:07.305Z,0
2023-02-13T04:15:07.051Z,0
2023-02-13T04:16:06.720Z,0
2023-02-13T04:17:07.561Z,0
2023-02-13T04:18:07.464Z,0
2023-02-13T04:19:07.206Z,0
2023-02-13T04:20:06.715Z,0
2023-02-13T04:21:07.419Z,0
2023-02-13T04:22:07.304Z,0
2023-02-13T04:23:06.873Z,0
2023-02-13T04:24:07.082Z,0
2023-02-13T04:25:07.105Z,0
2023-02-13T04:26:06.827Z,0
2023-02-13T04:27:06.804Z,0
2023-02-13T04:28:06.755Z,0
2023-02-13T04:29:06.735Z,0
2023-02-13T04:30:06.729Z,0
2023-02-13T04:31:08.522Z,0
2023-02-13T04:32:06.632Z,0
2023-02-13T04:33:07.462Z,0
2023-02-13T04:34:07.496Z,0
2023-02-13T04:35:07.700Z,0
2023-02-13T04:36:07.655Z,0
2023-02-13T04:37:07.631Z,0
2023-02-13T04:38:08.076Z,0
2023-02-13T04:39:07.376Z,0
2023-02-13T04:40:07.954Z,0
2023-02-13T04:41:08.334Z,0
2023-02-13T04:42:07.560Z,0
2023-02-13T04:43:07.585Z,0
2023-02-13T04:44:07.319Z,0
2023-02-13T04:45:07.007Z,0
2023-02-13T04:46:07.846Z,0
2023-02-13T04:47:07.221Z,0
2023-02-13T04:48:07.181Z,0
2023-02-13T04:49:07.184Z,0
2023-02-13T04:50:06.924Z,0
2023-02-13T04:51:07.904Z,0
2023-02-13T04:52:07.103Z,0
2023-02-13T04:53:07.358Z,0
2023-02-13T04:54:07.730Z,0
2023-02-13T04:55:07.562Z,0
2023-02-13T04:56:07.393Z,0
2023-02-13T04:57:07.062Z,0
2023-02-13T04:58:07.535Z,0
2023-02-13T04:59:07.277Z,0
2023-02-13T05:00:07.254Z,0
2023-02-13T05:01:08.257Z,0
2023-02-13T05:02:07.186Z,0
2023-02-13T05:03:07.427Z,0
2023-02-13T05:04:07.636Z,0
2023-02-13T05:05:06.878Z,0
2023-02-13T05:06:06.846Z,0
2023-02-13T05:07:07.333Z,0
2023-02-13T05:08:06.823Z,0
2023-02-13T05:09:07.069Z,0
2023-02-13T05:10:07.484Z,0
2023-02-13T05:11:07.598Z,0
2023-02-13T05:12:07.158Z,0
2023-02-13T05:13:07.013Z,0
2023-02-13T05:14:06.641Z,0
2023-02-13T05:15:07.419Z,0
2023-02-13T05:16:07.964Z,0
2023-02-13T05:17:07.128Z,0
2023-02-13T05:18:07.402Z,0
2023-02-13T05:19:07.347Z,0
2023-02-13T05:20:07.082Z,0
2023-02-13T05:21:07.702Z,0
2023-02-13T05:22:07.282Z,0
2023-02-13T05:23:07.284Z,0
2023-02-13T05:24:07.002Z,0
2023-02-13T05:25:07.492Z,0
2023-02-13T05:26:07.607Z,0
2023-02-13T05:27:07.198Z,0
2023-02-13T05:28:07.447Z,0
2023-02-13T05:29:07.157Z,0
2023-02-13T05:30:07.386Z,0
2023-02-13T05:31:08.789Z,0
2023-02-13T05:32:08.224Z,0
2023-02-13T05:33:07.317Z,0
2023-02-13T05:34:07.310Z,0
2023-02-13T05:35:09.292Z,0
2023-02-13T05:36:07.312Z,0
2023-02-13T05:37:07.278Z,0
2023-02-13T05:38:06.719Z,0
2023-02-13T05:39:07.251Z,0
2023-02-13T05:40:06.704Z,0
2023-02-13T05:41:07.209Z,0
2023-02-13T05:42:07.338Z,0
2023-02-13T05:43:07.153Z,0
2023-02-13T05:44:06.894Z,0
2023-02-13T05:45:06.855Z,0
2023-02-13T05:46:08.137Z,0
2023-02-13T05:47:10.240Z,0
2023-02-13T05:48:07.620Z,0
2023-02-13T05:49:09.680Z,0
2023-02-13T05:50:07.286Z,0
2023-02-13T05:51:08.312Z,0
2023-02-13T05:52:07.830Z,0
2023-02-13T05:53:07.502Z,0
2023-02-13T05:54:07.553Z,0
2023-02-13T05:55:07.742Z,0
2023-02-13T05:56:07.768Z,0
2023-02-13T05:57:07.706Z,0
2023-02-13T05:58:07.911Z,0
2023-02-13T05:59:07.160Z,0
2023-02-13T06:00:07.699Z,0
2023-02-13T06:01:07.673Z,0
2023-02-13T06:02:07.075Z,0
2023-02-13T06:03:07.490Z,0
2023-02-13T06:04:11.253Z,0
2023-02-13T06:05:07.465Z,0
2023-02-13T06:06:07.258Z,0
2023-02-13T06:07:07.279Z,0
2023-02-13T06:08:07.472Z,0
2023-02-13T06:09:07.516Z,0
2023-02-13T06:10:07.494Z,0
2023-02-13T06:11:07.959Z,0
2023-02-13T06:12:07.430Z,0
2023-02-13T06:13:06.884Z,0
2023-02-13T06:14:07.505Z,0
2023-02-13T06:15:06.906Z,0
2023-02-13T06:16:07.758Z,0
2023-02-13T06:17:07.317Z,0
2023-02-13T06:18:07.047Z,0
2023-02-13T06:19:07.291Z,0
2023-02-13T06:20:06.790Z,0
2023-02-13T06:21:07.550Z,0
2023-02-13T06:22:06.962Z,0
2023-02-13T06:23:06.697Z,0
2023-02-13T06:24:06.691Z,0
2023-02-13T06:25:07.164Z,0
2023-02-13T06:26:06.904Z,5
2023-02-13T06:27:06.880Z,5
2023-02-13T06:28:06.952Z,5
2023-02-13T06:29:08.866Z,5
2023-02-13T06:30:07.210Z,5
2023-02-13T06:31:08.792Z,5
2023-02-13T06:32:07.026Z,5
2023-02-13T06:33:07.046Z,5
2023-02-13T06:34:07.037Z,5
2023-02-13T06:35:09.731Z,10
2023-02-13T06:36:06.461Z,10
2023-02-13T06:37:06.710Z,10
2023-02-13T06:38:06.712Z,10
2023-02-13T06:39:06.693Z,10
2023-02-13T06:40:06.374Z,10
2023-02-13T06:41:07.683Z,15
2023-02-13T06:42:06.650Z,15
2023-02-13T06:43:06.071Z,15
2023-02-13T06:44:06.575Z,15
2023-02-13T06:45:06.311Z,15
2023-02-13T06:46:07.047Z,15
2023-02-13T06:47:07.189Z,20
2023-02-13T06:48:05.976Z,20
2023-02-13T06:49:06.735Z,20
2023-02-13T06:50:06.480Z,20
2023-02-13T06:51:06.471Z,20
2023-02-13T06:52:06.697Z,25
2023-02-13T06:53:06.187Z,25
2023-02-13T06:54:06.118Z,25
2023-02-13T06:55:06.670Z,25
2023-02-13T06:56:06.116Z,30
2023-02-13T06:57:06.596Z,30
2023-02-13T06:58:06.086Z,30
2023-02-13T06:59:06.552Z,30
2023-02-13T07:00:06.094Z,30
2023-02-13T07:01:07.412Z,35
2023-02-13T07:02:06.687Z,35
2023-02-13T07:03:06.689Z,35
2023-02-13T07:04:06.475Z,35
2023-02-13T07:05:06.227Z,35
2023-02-13T07:06:05.834Z,35
2023-02-13T07:07:05.635Z,40
2023-02-13T07:08:05.897Z,40
2023-02-13T07:09:05.881Z,40
2023-02-13T07:10:06.134Z,45
2023-02-13T07:11:06.783Z,45
2023-02-13T07:12:06.134Z,45
2023-02-13T07:13:14.491Z,50
2023-02-13T07:14:05.773Z,50
2023-02-13T07:15:06.278Z,50
2023-02-13T07:16:06.459Z,50
2023-02-13T07:17:05.988Z,50
2023-02-13T07:18:06.363Z,55
2023-02-13T07:19:05.928Z,55
2023-02-13T07:20:05.985Z,55
2023-02-13T07:21:07.011Z,55
2023-02-13T07:22:05.624Z,55
2023-02-13T07:23:05.606Z,60
2023-02-13T07:24:07.747Z,60
2023-02-13T07:25:06.101Z,60
2023-02-13T07:26:05.819Z,65
2023-02-13T07:27:05.534Z,65
2023-02-13T07:28:05.984Z,65
2023-02-13T07:29:19.832Z,65
2023-02-13T07:30:05.511Z,65
2023-02-13T07:31:07.466Z,65
2023-02-13T07:32:05.889Z,65
2023-02-13T07:33:05.484Z,65
2023-02-13T07:34:06.075Z,70
2023-02-13T07:35:11.247Z,70
2023-02-13T07:36:05.376Z,70
2023-02-13T07:37:06.387Z,70
2023-02-13T07:38:06.666Z,70
2023-02-13T07:39:07.073Z,70
2023-02-13T07:40:08.879Z,75
2023-02-13T07:41:07.493Z,75
2023-02-13T07:42:07.234Z,80
2023-02-13T07:43:06.970Z,80
2023-02-13T07:44:07.209Z,85
2023-02-13T07:45:07.192Z,85
2023-02-13T07:46:07.835Z,85
2023-02-13T07:47:07.523Z,90
2023-02-13T07:48:07.419Z,90
2023-02-13T07:49:07.403Z,90
2023-02-13T07:50:07.492Z,90
2023-02-13T07:51:06.908Z,90
2023-02-13T07:52:07.313Z,90
2023-02-13T07:53:07.083Z,90
2023-02-13T07:54:06.913Z,90
2023-02-13T07:55:06.510Z,90
2023-02-13T07:56:07.557Z,85
2023-02-13T07:57:07.005Z,85
2023-02-13T07:58:06.770Z,85
2023-02-13T07:59:08.669Z,85
2023-02-13T08:00:06.971Z,85
2023-02-13T08:01:07.209Z,80
2023-02-13T08:02:07.623Z,75
2023-02-13T08:03:07.409Z,75
2023-02-13T08:04:07.458Z,70
2023-02-13T08:05:07.411Z,70
2023-02-13T08:06:07.914Z,70
2023-02-13T08:07:07.078Z,65
2023-02-13T08:08:07.330Z,65
2023-02-13T08:09:06.787Z,65
2023-02-13T08:10:07.140Z,65
2023-02-13T08:11:07.034Z,65
2023-02-13T08:12:06.769Z,60
2023-02-13T08:13:06.714Z,60
2023-02-13T08:14:06.779Z,65
2023-02-13T08:15:06.774Z,65
2023-02-13T08:16:07.482Z,65
2023-02-13T08:17:06.707Z,65
2023-02-13T08:18:06.713Z,65
2023-02-13T08:19:06.108Z,65
2023-02-13T08:20:06.866Z,65
2023-02-13T08:21:07.122Z,65
2023-02-13T08:22:07.341Z,65
2023-02-13T08:23:06.806Z,65
2023-02-13T08:24:06.815Z,65
2023-02-13T08:25:06.884Z,65
2023-02-13T08:26:07.906Z,65
2023-02-13T08:27:07.343Z,70
2023-02-13T08:28:07.549Z,70
2023-02-13T08:29:07.319Z,70
2023-02-13T08:30:07.325Z,70
2023-02-13T08:31:08.612Z,70
2023-02-13T08:32:07.711Z,70
2023-02-13T08:33:07.009Z,70
2023-02-13T08:34:07.244Z,70
2023-02-13T08:35:06.701Z,70
2023-02-13T08:36:07.419Z,70
2023-02-13T08:37:06.954Z,70
2023-02-13T08:38:07.317Z,70
2023-02-13T08:39:07.120Z,70
2023-02-13T08:40:07.236Z,70
2023-02-13T08:41:06.947Z,70
2023-02-13T08:42:07.101Z,70
2023-02-13T08:43:07.476Z,70
2023-02-13T08:44:06.790Z,70
2023-02-13T08:45:07.893Z,70
2023-02-13T08:46:08.097Z,70
2023-02-13T08:47:06.744Z,70
2023-02-13T08:48:06.616Z,70
2023-02-13T08:49:06.449Z,70
2023-02-13T08:50:06.976Z,70
2023-02-13T08:51:06.654Z,70
2023-02-13T08:52:06.709Z,70
2023-02-13T08:53:06.666Z,70
2023-02-13T08:54:07.050Z,70
2023-02-13T08:55:06.602Z,70
2023-02-13T08:56:07.715Z,70
2023-02-13T08:57:07.995Z,70
2023-02-13T08:58:06.824Z,75
2023-02-13T08:59:06.530Z,75
2023-02-13T09:00:06.804Z,75
2023-02-13T09:01:06.908Z,75
2023-02-13T09:02:06.526Z,75
2023-02-13T09:03:09.111Z,75
2023-02-13T09:04:06.875Z,75
2023-02-13T09:05:06.454Z,75
2023-02-13T09:06:06.731Z,75
2023-02-13T09:07:06.162Z,75
2023-02-13T09:08:06.325Z,75
2023-02-13T09:09:06.409Z,75
2023-02-13T09:10:06.474Z,75
2023-02-13T09:11:06.336Z,75
2023-02-13T09:12:06.744Z,80
2023-02-13T09:13:06.322Z,80
2023-02-13T09:14:06.004Z,80
2023-02-13T09:15:05.493Z,80
2023-02-13T09:16:07.362Z,80
2023-02-13T09:17:06.454Z,80
2023-02-13T09:18:06.267Z,80
2023-02-13T09:19:06.436Z,80
2023-02-13T09:20:05.721Z,80
2023-02-13T09:21:06.416Z,80
2023-02-13T09:22:05.657Z,80
2023-02-13T09:23:06.138Z,80
2023-02-13T09:24:06.362Z,80
2023-02-13T09:25:05.914Z,80
2023-02-13T09:26:07.273Z,80
2023-02-13T09:27:06.177Z,80
2023-02-13T09:28:06.349Z,80
2023-02-13T09:29:05.801Z,80
2023-02-13T09:30:06.647Z,80
2023-02-13T09:31:06.792Z,80
2023-02-13T09:32:06.646Z,80
2023-02-13T09:33:05.694Z,80
2023-02-13T09:34:05.973Z,80
2023-02-13T09:35:05.669Z,80
2023-02-13T09:36:07.097Z,80
2023-02-13T09:37:05.896Z,80
2023-02-13T09:38:05.922Z,80
2023-02-13T09:39:05.612Z,80
2023-02-13T09:40:06.096Z,80
2023-02-13T09:41:06.130Z,80
2023-02-13T09:42:06.176Z,80
2023-02-13T09:43:06.025Z,80
2023-02-13T09:44:05.888Z,80
2023-02-13T09:45:05.757Z,80
2023-02-13T09:46:07.347Z,80
2023-02-13T09:47:05.454Z,80
2023-02-13T09:48:05.686Z,85
2023-02-13T09:49:05.686Z,80
2023-02-13T09:50:05.168Z,80
2023-02-13T09:51:05.676Z,80
2023-02-13T09:52:05.932Z,80
2023-02-13T09:53:05.626Z,80
2023-02-13T09:54:05.867Z,80
2023-02-13T09:55:05.340Z,85
2023-02-13T09:56:06.330Z,80
2023-02-13T09:57:05.604Z,80
2023-02-13T09:58:05.923Z,80
2023-02-13T09:59:05.533Z,80
2023-02-13T10:00:04.982Z,80
2023-02-13T10:01:05.864Z,80
2023-02-13T10:02:05.569Z,80
2023-02-13T10:03:05.764Z,80
2023-02-13T10:04:05.173Z,80
2023-02-13T10:05:06.238Z,80
2023-02-13T10:06:06.868Z,80
2023-02-13T10:07:05.407Z,80
2023-02-13T10:08:05.972Z,80
2023-02-13T10:09:05.158Z,80
2023-02-13T10:10:04.843Z,80
2023-02-13T10:11:06.108Z,80
2023-02-13T10:12:05.412Z,80
2023-02-13T10:13:05.451Z,85
2023-02-13T10:14:05.640Z,85
2023-02-13T10:15:05.261Z,85
2023-02-13T10:16:07.067Z,85
2023-02-13T10:17:05.214Z,85
2023-02-13T10:18:04.703Z,85
2023-02-13T10:19:05.180Z,80
2023-02-13T10:20:05.174Z,80
2023-02-13T10:21:05.174Z,80
2023-02-13T10:22:04.889Z,80
2023-02-13T10:23:05.100Z,80
2023-02-13T10:24:05.136Z,80
2023-02-13T10:25:05.324Z,80
2023-02-13T10:26:06.122Z,80
2023-02-13T10:27:04.551Z,80
2023-02-13T10:28:04.982Z,85
2023-02-13T10:29:05.040Z,85
2023-02-13T10:30:05.537Z,85
2023-02-13T10:31:06.042Z,85
2023-02-13T10:32:05.905Z,85
2023-02-13T10:33:05.207Z,90
2023-02-13T10:34:05.199Z,90
2023-02-13T10:35:05.184Z,90
2023-02-13T10:36:06.011Z,90
2023-02-13T10:37:06.439Z,90
2023-02-13T10:38:06.080Z,90
2023-02-13T10:39:05.832Z,90
2023-02-13T10:40:05.541Z,90
2023-02-13T10:41:06.402Z,90
2023-02-13T10:42:05.983Z,90
2023-02-13T10:43:05.767Z,90
2023-02-13T10:44:06.046Z,90
2023-02-13T10:45:06.138Z,90
2023-02-13T10:46:07.558Z,90
2023-02-13T10:47:06.370Z,90
2023-02-13T10:48:07.835Z,90
2023-02-13T10:49:06.184Z,90
2023-02-13T10:50:06.178Z,90
2023-02-13T10:51:06.111Z,90
2023-02-13T10:52:05.851Z,90
2023-02-13T10:53:06.131Z,90
2023-02-13T10:54:05.545Z,90
2023-02-13T10:55:08.670Z,90
2023-02-13T10:56:07.342Z,90
2023-02-13T10:57:06.067Z,90
2023-02-13T10:58:05.831Z,90
2023-02-13T10:59:05.537Z,90
2023-02-13T11:00:05.995Z,90
2023-02-13T11:01:05.821Z,90
2023-02-13T11:02:06.212Z,90
2023-02-13T11:03:05.412Z,90
2023-02-13T11:04:05.825Z,90
2023-02-13T11:05:05.374Z,90
2023-02-13T11:06:06.564Z,90
2023-02-13T11:07:05.646Z,90
2023-02-13T11:08:05.345Z,90
2023-02-13T11:09:05.072Z,90
2023-02-13T11:10:05.862Z,90
2023-02-13T11:11:05.597Z,90
2023-02-13T11:12:05.275Z,90
2023-02-13T11:13:05.279Z,90
2023-02-13T11:14:05.255Z,90
2023-02-13T11:15:05.280Z,90
2023-02-13T11:16:07.613Z,90
2023-02-13T11:17:05.517Z,90
2023-02-13T11:18:05.822Z,90
2023-02-13T11:19:05.461Z,90
2023-02-13T11:20:05.476Z,90
2023-02-13T11:21:05.413Z,90
2023-02-13T11:22:05.674Z,90
2023-02-13T11:23:05.650Z,90
2023-02-13T11:24:05.586Z,90
2023-02-13T11:25:05.613Z,90
2023-02-13T11:26:06.678Z,90
2023-02-13T11:27:05.580Z,90
2023-02-13T11:28:04.968Z,90
2023-02-13T11:29:04.801Z,90
2023-02-13T11:30:04.743Z,90
2023-02-13T11:31:05.699Z,90
2023-02-13T11:32:06.141Z,90
2023-02-13T11:33:05.638Z,90
2023-02-13T11:34:08.726Z,90
2023-02-13T11:35:05.435Z,90
2023-02-13T11:36:06.227Z,90
2023-02-13T11:37:04.926Z,90
2023-02-13T11:38:05.142Z,95
2023-02-13T11:39:04.868Z,90
2023-02-13T11:40:05.449Z,95
2023-02-13T11:41:04.594Z,95
2023-02-13T11:42:04.817Z,90
2023-02-13T11:43:04.590Z,90
2023-02-13T11:44:05.412Z,90
2023-02-13T11:45:05.108Z,90
2023-02-13T11:46:06.204Z,90
2023-02-13T11:47:05.652Z,90
2023-02-13T11:48:05.300Z,90
2023-02-13T11:49:05.279Z,90
2023-02-13T11:50:05.462Z,90
2023-02-13T11:51:05.217Z,90
2023-02-13T11:52:04.967Z,90
2023-02-13T11:53:04.708Z,90
2023-02-13T11:54:04.913Z,90
2023-02-13T11:55:07.447Z,90
2023-02-13T11:56:06.162Z,90
2023-02-13T11:57:20.486Z,90
2023-02-13T11:58:05.771Z,90
2023-02-13T11:59:06.213Z,90
2023-02-13T12:00:05.776Z,90
2023-02-13T12:01:05.737Z,90
2023-02-13T12:02:05.469Z,90
2023-02-13T12:03:06.253Z,90
2023-02-13T12:04:05.889Z,90
2023-02-13T12:05:05.712Z,90
2023-02-13T12:06:07.113Z,90
2023-02-13T12:07:05.192Z,90
2023-02-13T12:08:05.384Z,90
2023-02-13T12:09:05.160Z,90
2023-02-13T12:10:05.151Z,90
2023-02-13T12:11:05.387Z,90
2023-02-13T12:12:07.274Z,90
2023-02-13T12:13:05.391Z,90
2023-02-13T12:14:05.299Z,90
2023-02-13T12:15:05.532Z,90
2023-02-13T12:16:07.344Z,90
2023-02-13T12:17:05.230Z,95
2023-02-13T12:18:05.004Z,95
2023-02-13T12:19:05.456Z,95
2023-02-13T12:20:05.076Z,90
2023-02-13T12:21:06.383Z,90
2023-02-13T12:22:05.781Z,85
2023-02-13T12:23:04.971Z,85
2023-02-13T12:24:04.913Z,90
2023-02-13T12:25:05.164Z,95
2023-02-13T12:26:06.519Z,100
2023-02-13T12:27:05.354Z,100
2023-02-13T12:28:05.015Z,95
2023-02-13T12:29:05.178Z,90
2023-02-13T12:30:04.819Z,90
2023-02-13T12:31:07.605Z,85
2023-02-13T12:32:06.486Z,85
2023-02-13T12:33:05.691Z,90
2023-02-13T12:34:05.939Z,90
2023-02-13T12:35:05.909Z,85
2023-02-13T12:36:05.738Z,90
2023-02-13T12:37:06.018Z,90
2023-02-13T12:38:06.250Z,90
2023-02-13T12:39:05.563Z,90
2023-02-13T12:40:07.383Z,85
2023-02-13T12:41:06.523Z,80
2023-02-13T12:42:05.798Z,90
2023-02-13T12:43:05.782Z,95
2023-02-13T12:44:05.502Z,100
2023-02-13T12:45:05.728Z,100
2023-02-13T12:46:05.926Z,95
2023-02-13T12:47:05.714Z,95
2023-02-13T12:48:05.943Z,100
2023-02-13T12:49:05.937Z,95
2023-02-13T12:50:05.675Z,100
2023-02-13T12:51:06.570Z,100
2023-02-13T12:52:05.898Z,100
2023-02-13T12:53:05.690Z,100
2023-02-13T12:54:05.756Z,110
2023-02-13T12:55:05.576Z,125
2023-02-13T12:56:05.162Z,135
2023-02-13T12:57:05.331Z,130
2023-02-13T12:58:05.569Z,125
2023-02-13T12:59:05.293Z,110
2023-02-13T13:00:05.532Z,100
2023-02-13T13:01:06.676Z,100
2023-02-13T13:02:05.595Z,105
2023-02-13T13:03:05.225Z,110
2023-02-13T13:04:05.717Z,100
2023-02-13T13:05:05.646Z,100
2023-02-13T13:06:19.687Z,100
2023-02-13T13:07:06.127Z,105
2023-02-13T13:08:05.603Z,100
2023-02-13T13:09:05.638Z,105
2023-02-13T13:10:05.952Z,105
2023-02-13T13:11:06.989Z,100
2023-02-13T13:12:06.045Z,105
2023-02-13T13:13:05.774Z,125
2023-02-13T13:14:06.014Z,125
2023-02-13T13:15:05.750Z,115
2023-02-13T13:16:05.728Z,110
2023-02-13T13:17:06.214Z,110
2023-02-13T13:18:05.720Z,115
2023-02-13T13:19:05.947Z,105
2023-02-13T13:20:05.454Z,100
2023-02-13T13:21:06.436Z,85
2023-02-13T13:22:05.899Z,85
2023-02-13T13:23:05.881Z,80
2023-02-13T13:24:05.998Z,90
2023-02-13T13:25:05.879Z,95
2023-02-13T13:26:06.292Z,100
2023-02-13T13:27:05.596Z,110
2023-02-13T13:28:05.554Z,115
2023-02-13T13:29:05.297Z,115
2023-02-13T13:30:06.166Z,115
2023-02-13T13:31:07.976Z,125
2023-02-13T13:32:06.121Z,120
2023-02-13T13:33:05.743Z,105
2023-02-13T13:34:05.979Z,105
2023-02-13T13:35:04.997Z,105
2023-02-13T13:36:05.726Z,110
2023-02-13T13:37:05.466Z,110
2023-02-13T13:38:05.445Z,105
2023-02-13T13:39:08.332Z,95
2023-02-13T13:40:05.775Z,90
2023-02-13T13:41:07.016Z,85
2023-02-13T13:42:06.093Z,80
2023-02-13T13:43:05.615Z,80
2023-02-13T13:44:05.708Z,80
2023-02-13T13:45:05.659Z,80
2023-02-13T13:46:05.984Z,80
2023-02-13T13:47:05.597Z,80
2023-02-13T13:48:05.565Z,85
2023-02-13T13:49:05.787Z,80
2023-02-13T13:50:05.604Z,70
2023-02-13T13:51:06.092Z,70
2023-02-13T13:52:05.735Z,75
2023-02-13T13:53:05.771Z,75
2023-02-13T13:54:05.514Z,75
2023-02-13T13:55:05.335Z,75
2023-02-13T13:56:05.438Z,75
2023-02-13T13:57:05.687Z,75
2023-02-13T13:58:05.520Z,75
2023-02-13T13:59:05.125Z,75
2023-02-13T14:00:05.429Z,70
2023-02-13T14:01:06.147Z,75
2023-02-13T14:02:05.472Z,80
2023-02-13T14:03:05.585Z,80
2023-02-13T14:04:05.576Z,80
2023-02-13T14:05:05.294Z,80
2023-02-13T14:06:05.567Z,75
2023-02-13T14:07:05.552Z,70
2023-02-13T14:08:05.506Z,65
2023-02-13T14:09:05.251Z,65
2023-02-13T14:10:04.739Z,70
2023-02-13T14:11:06.320Z,70
2023-02-13T14:12:04.990Z,70
2023-02-13T14:13:05.006Z,70
2023-02-13T14:14:05.527Z,70
2023-02-13T14:15:04.913Z,80
2023-02-13T14:16:05.400Z,85
2023-02-13T14:17:04.654Z,90
2023-02-13T14:18:05.359Z,95
2023-02-13T14:19:05.368Z,90
2023-02-13T14:20:06.114Z,85
2023-02-13T14:21:05.760Z,80
2023-02-13T14:22:05.074Z,75
2023-02-13T14:23:05.030Z,70
2023-02-13T14:24:05.034Z,65
2023-02-13T14:25:04.758Z,70
2023-02-13T14:26:04.986Z,65
2023-02-13T14:27:14.688Z,70
2023-02-13T14:28:05.217Z,75
2023-02-13T14:29:05.003Z,80
2023-02-13T14:30:05.730Z,80
2023-02-13T14:31:07.954Z,80
2023-02-13T14:32:05.418Z,80
2023-02-13T14:33:04.896Z,80
2023-02-13T14:34:05.139Z,80
2023-02-13T14:35:04.674Z,75
2023-02-13T14:36:05.123Z,70
2023-02-13T14:37:04.842Z,70
2023-02-13T14:38:04.950Z,70
2023-02-13T14:39:04.835Z,65
2023-02-13T14:40:04.805Z,70
2023-02-13T14:41:06.127Z,75
2023-02-13T14:42:05.071Z,75
2023-02-13T14:43:04.785Z,80